Terminal Aerodrome Forecast
Issued by NWS

Home | Current Version | Previous Version | Text Only | Print | Product List | Glossary On
Versions: 1 2 3 4 5 6 7 8 9 10 11 12 13 14 15 16 17 18 19 20 21 22 23 24 25 26 27 28 29 30 31 32
196
FTUS46 KSEW 221729
TAFSEA
TAF
KSEA 221729Z 2218/2324 18003KT P6SM SCT035 OVC045
     FM222100 17010KT P6SM -SHRA SCT025 OVC040
     FM230500 20012G19KT 5SM -SHRA OVC025=

USA.gov is the U.S. government's official web portal to all federal, state and local government web resources and services.